createdAt,value
2019-01-21T00:01:23.148Z,55.65
2019-01-21T00:03:51.840Z,53.89
2019-01-21T00:09:09.099Z,53.48
2019-01-21T00:11:37.795Z,54.38
2019-01-21T00:16:54.343Z,54.35
2019-01-21T00:21:57.113Z,54.37
2019-01-21T00:24:25.727Z,54.15
2019-01-21T00:29:42.234Z,53.74
2019-01-21T00:32:10.799Z,53.97
2019-01-21T00:34:39.399Z,53.75
2019-01-21T00:37:07.967Z,53.95
2019-01-21T00:39:37.274Z,54.01
2019-01-21T00:42:06.298Z,53.55
2019-01-21T00:44:34.894Z,54.20
2019-01-21T00:47:03.482Z,54.77
2019-01-21T00:49:32.061Z,54.32
2019-01-21T00:52:01.523Z,54.91
2019-01-21T00:54:30.111Z,53.92
2019-01-21T00:56:58.822Z,53.55
2019-01-21T00:59:27.405Z,53.48
2019-01-21T01:02:15.231Z,54.46
2019-01-21T01:04:43.839Z,55.20
2019-01-21T01:10:00.175Z,55.06
2019-01-21T01:12:28.756Z,54.37
2019-01-21T01:14:57.338Z,53.91
2019-01-21T01:17:25.940Z,53.66
2019-01-21T01:22:29.234Z,53.00
2019-01-21T01:24:58.641Z,53.25
2019-01-21T01:27:27.211Z,53.26
2019-01-21T01:29:55.791Z,53.49
2019-01-21T01:32:24.386Z,53.83
2019-01-21T01:34:53.387Z,53.89
2019-01-21T01:37:22.007Z,53.51
2019-01-21T01:39:50.595Z,55.00
2019-01-21T01:42:19.184Z,53.97
2019-01-21T01:44:47.772Z,54.15
2019-01-21T01:52:25.328Z,54.37
2019-01-21T01:57:47.800Z,53.99
2019-01-21T02:00:16.855Z,54.63
2019-01-21T02:02:45.520Z,54.60
2019-01-21T02:05:14.211Z,54.18
2019-01-21T02:07:42.818Z,53.22
2019-01-21T02:10:32.230Z,53.41
2019-01-21T02:13:00.929Z,53.92
2019-01-21T02:15:29.512Z,54.25
2019-01-21T02:17:58.390Z,52.94
2019-01-21T02:20:26.955Z,53.08
2019-01-21T02:22:58.888Z,53.21
2019-01-21T02:26:05.990Z,53.76
2019-01-21T02:28:57.192Z,53.30
2019-01-21T02:32:04.290Z,54.31
2019-01-21T02:35:11.439Z,54.15
2019-01-21T02:38:18.907Z,53.70
2019-01-21T02:41:13.626Z,53.18
2019-01-21T02:44:20.731Z,53.11
2019-01-21T02:47:11.444Z,53.57
2019-01-21T02:50:18.679Z,53.50
2019-01-21T02:53:25.757Z,53.11
2019-01-21T02:56:28.039Z,53.74
2019-01-21T02:59:35.135Z,52.77
2019-01-21T03:02:27.779Z,52.94
2019-01-21T03:05:35.119Z,52.86
2019-01-21T03:08:36.462Z,52.92
2019-01-21T03:11:39.381Z,52.90
2019-01-21T03:14:46.451Z,53.63
2019-01-21T03:21:11.808Z,53.00
2019-01-21T03:24:18.970Z,53.15
2019-01-21T03:27:26.867Z,52.76
2019-01-21T03:30:28.901Z,52.98
2019-01-21T03:33:22.353Z,53.00
2019-01-21T03:36:17.908Z,52.64
2019-01-21T03:39:14.576Z,52.80
2019-01-21T03:42:05.366Z,52.94
2019-01-21T03:45:12.651Z,52.96
2019-01-21T03:48:03.881Z,54.24
2019-01-21T03:50:58.812Z,52.82
2019-01-21T03:53:50.896Z,52.98
2019-01-21T03:56:29.033Z,53.17
2019-01-21T03:59:22.712Z,52.64
2019-01-21T04:02:29.820Z,53.65
2019-01-21T04:08:49.973Z,52.99
2019-01-21T04:11:57.095Z,52.84
2019-01-21T04:15:04.201Z,52.45
2019-01-21T04:18:11.310Z,52.75
2019-01-21T04:21:18.446Z,53.32
2019-01-21T04:24:44.658Z,53.51
2019-01-21T04:27:36.197Z,54.17
2019-01-21T04:30:29.063Z,53.33
2019-01-21T04:33:22.714Z,53.15
2019-01-21T04:36:29.817Z,54.07
2019-01-21T04:39:20.577Z,53.68
2019-01-21T04:42:27.766Z,53.33
2019-01-21T04:45:34.860Z,53.57
2019-01-21T04:48:32.883Z,53.48
2019-01-21T04:51:27.691Z,53.32
2019-01-21T04:58:05.311Z,52.97
2019-01-21T05:01:12.404Z,53.12
2019-01-21T05:04:19.576Z,53.44
2019-01-21T05:07:14.132Z,53.75
2019-01-21T05:10:21.238Z,53.16
2019-01-21T05:13:28.326Z,53.00
2019-01-21T05:20:05.322Z,53.39
2019-01-21T05:23:12.422Z,52.71
2019-01-21T05:26:19.547Z,53.40
2019-01-21T05:29:10.429Z,53.27
2019-01-21T05:32:17.507Z,53.04
2019-01-21T05:35:10.338Z,52.98
2019-01-21T05:38:17.455Z,53.09
2019-01-21T05:41:24.652Z,52.90
2019-01-21T05:44:19.841Z,53.02
2019-01-21T05:47:25.710Z,53.43
2019-01-21T05:50:17.559Z,53.15
2019-01-21T05:53:24.662Z,52.83
2019-01-21T05:56:31.749Z,52.61
2019-01-21T05:59:30.504Z,52.75
2019-01-21T06:02:29.961Z,52.60
2019-01-21T06:05:16.507Z,53.40
2019-01-21T06:07:55.944Z,52.96
2019-01-21T06:10:48.199Z,52.52
2019-01-21T06:13:55.339Z,52.82
2019-01-21T06:16:49.951Z,52.68
2019-01-21T06:19:36.884Z,52.81
2019-01-21T06:22:37.414Z,53.01
2019-01-21T06:25:29.106Z,52.78
2019-01-21T06:32:19.708Z,53.77
2019-01-21T06:34:59.433Z,53.94
2019-01-21T06:38:06.539Z,53.46
2019-01-21T06:41:13.662Z,52.79
2019-01-21T06:44:05.264Z,54.30
2019-01-21T06:47:12.605Z,53.14
2019-01-21T06:50:19.712Z,53.02
2019-01-21T06:53:26.822Z,54.39
2019-01-21T06:56:34.047Z,54.34
2019-01-21T06:59:41.181Z,54.17
2019-01-21T07:02:32.203Z,54.37
2019-01-21T07:05:24.988Z,53.25
2019-01-21T07:08:24.574Z,53.93
2019-01-21T07:11:34.458Z,52.88
2019-01-21T07:14:41.555Z,52.98
2019-01-21T07:21:01.036Z,53.14
2019-01-21T07:23:54.167Z,52.89
2019-01-21T07:30:23.980Z,51.89
2019-01-21T07:33:31.073Z,52.48
2019-01-21T07:36:22.168Z,52.61
2019-01-21T07:39:15.402Z,53.65
2019-01-21T07:42:22.506Z,54.71
2019-01-21T07:45:16.297Z,54.23
2019-01-21T07:48:11.334Z,54.67
2019-01-21T07:51:18.438Z,53.55
2019-01-21T07:58:09.399Z,53.04
2019-01-21T08:01:21.549Z,53.45
2019-01-21T08:04:28.654Z,54.21
2019-01-21T08:07:19.818Z,53.80
2019-01-21T08:13:17.849Z,52.74
2019-01-21T08:16:11.667Z,53.36
2019-01-21T08:19:03.426Z,53.15
2019-01-21T08:22:10.536Z,53.10
2019-01-21T08:28:48.108Z,52.95
2019-01-21T08:31:55.221Z,54.61
2019-01-21T08:34:46.354Z,54.69
2019-01-21T08:37:53.469Z,52.10
2019-01-21T08:41:00.596Z,52.10
2019-01-21T08:43:55.956Z,52.19
2019-01-21T08:46:47.046Z,52.10
2019-01-21T08:53:04.690Z,51.82
2019-01-21T08:55:56.194Z,50.49
2019-01-21T08:59:03.298Z,51.50
2019-01-21T09:02:12.947Z,50.12
2019-01-21T09:05:20.066Z,51.41
2019-01-21T09:08:27.223Z,48.63
2019-01-21T09:11:37.367Z,48.20
2019-01-21T09:14:32.698Z,51.17
2019-01-21T09:17:39.843Z,48.80
2019-01-21T09:20:49.696Z,47.07
2019-01-21T09:23:56.800Z,44.02
2019-01-21T09:26:49.375Z,43.24
2019-01-21T09:29:56.476Z,41.28
2019-01-21T09:32:47.117Z,41.46
2019-01-21T09:35:38.595Z,40.96
2019-01-21T09:38:45.706Z,39.28
2019-01-21T09:41:52.815Z,39.30
2019-01-21T09:47:54.203Z,35.13
2019-01-21T09:50:22.884Z,33.05
2019-01-21T09:52:51.768Z,31.51
2019-01-21T09:56:00.210Z,30.25
2019-01-21T09:58:49.825Z,29.92
2019-01-21T10:01:58.254Z,29.02
2019-01-21T10:04:53.037Z,27.87
2019-01-21T10:08:01.358Z,25.97
2019-01-21T10:10:54.080Z,24.39
2019-01-21T10:14:01.173Z,25.58
2019-01-21T10:17:08.307Z,29.17
2019-01-21T10:20:15.401Z,29.84
2019-01-21T10:23:09.464Z,29.22
2019-01-21T10:26:16.546Z,28.82
2019-01-21T10:29:11.691Z,28.26
2019-01-21T10:35:27.512Z,26.06
2019-01-21T10:38:46.563Z,25.00
2019-01-21T10:41:22.452Z,22.93
2019-01-21T10:43:59.372Z,22.61
2019-01-21T10:46:53.602Z,23.43
2019-01-21T10:49:49.991Z,25.04
2019-01-21T10:52:44.361Z,24.47
2019-01-21T10:55:40.472Z,24.23
2019-01-21T10:58:47.560Z,24.35
2019-01-21T11:01:54.665Z,24.72
2019-01-21T11:05:04.604Z,27.35
2019-01-21T11:08:14.474Z,28.16
2019-01-21T11:11:05.072Z,30.38
2019-01-21T11:13:52.009Z,30.45
2019-01-21T11:16:43.624Z,30.77
2019-01-21T11:19:50.735Z,33.44
2019-01-21T11:22:46.091Z,34.63
2019-01-21T11:25:53.287Z,38.23
2019-01-21T11:28:44.734Z,36.51
2019-01-21T11:31:51.878Z,35.20
2019-01-21T11:35:01.831Z,34.63
2019-01-21T11:38:04.686Z,34.02
2019-01-21T11:40:55.771Z,33.69
2019-01-21T11:43:47.308Z,34.08
2019-01-21T11:46:42.535Z,33.02
2019-01-21T11:49:49.629Z,32.56
2019-01-21T11:52:43.249Z,32.86
2019-01-21T11:55:31.871Z,34.47
2019-01-21T11:58:56.828Z,33.18
2019-01-21T12:02:03.936Z,32.06
2019-01-21T12:04:55.207Z,35.58
2019-01-21T12:08:03.326Z,37.23
2019-01-21T12:10:57.372Z,37.52
2019-01-21T12:13:53.859Z,36.41
2019-01-21T12:16:52.595Z,35.48
2019-01-21T12:19:59.115Z,32.44
2019-01-21T12:23:09.081Z,31.16
2019-01-21T12:25:53.422Z,28.99
2019-01-21T12:29:03.358Z,26.61
2019-01-21T12:31:59.293Z,25.30
2019-01-21T12:34:41.734Z,22.87
2019-01-21T12:37:47.954Z,23.07
2019-01-21T12:40:49.597Z,22.67
2019-01-21T12:44:07.479Z,20.22
2019-01-21T12:46:43.824Z,20.01
2019-01-21T12:49:47.371Z,19.82
2019-01-21T12:52:27.950Z,19.82
2019-01-21T12:55:49.936Z,19.52
2019-01-21T12:58:28.186Z,19.25
2019-01-21T13:01:10.969Z,20.03
2019-01-21T13:03:58.394Z,20.38
2019-01-21T13:06:49.676Z,20.22
2019-01-21T13:10:00.646Z,19.89
2019-01-21T13:13:19.883Z,19.52
2019-01-21T13:16:29.797Z,20.14
2019-01-21T13:19:32.034Z,21.09
2019-01-21T13:22:27.925Z,20.34
2019-01-21T13:25:46.696Z,19.32
2019-01-21T13:29:02.887Z,19.72
2019-01-21T13:32:18.921Z,21.42
2019-01-21T13:35:31.033Z,21.72
2019-01-21T13:38:14.708Z,24.22
2019-01-21T13:41:15.457Z,22.84
2019-01-21T13:44:19.979Z,23.67
2019-01-21T13:47:13.619Z,22.87
2019-01-21T13:49:50.540Z,22.87
2019-01-21T13:52:46.096Z,25.31
2019-01-21T13:55:24.951Z,25.31
2019-01-21T13:58:45.702Z,27.48
2019-01-21T14:01:39.498Z,30.50
2019-01-21T14:04:38.730Z,33.67
2019-01-21T14:07:44.958Z,33.65
2019-01-21T14:10:43.883Z,32.81
2019-01-21T14:13:27.342Z,33.42
2019-01-21T14:16:01.715Z,33.74
2019-01-21T14:19:01.417Z,34.03
2019-01-21T14:21:44.692Z,36.02
2019-01-21T14:24:57.097Z,37.63
2019-01-21T14:27:49.241Z,37.76
2019-01-21T14:30:35.301Z,38.19
2019-01-21T14:33:32.242Z,39.01
2019-01-21T14:36:52.725Z,39.67
2019-01-21T14:39:56.032Z,39.59
2019-01-21T14:42:54.024Z,40.33
2019-01-21T14:45:49.946Z,38.51
2019-01-21T14:48:46.716Z,37.04
2019-01-21T14:51:51.296Z,37.59
2019-01-21T14:54:44.571Z,37.81
2019-01-21T14:57:48.556Z,38.24
2019-01-21T15:00:43.989Z,38.14
2019-01-21T15:03:31.407Z,38.91
2019-01-21T15:06:38.351Z,39.54
2019-01-21T15:09:59.097Z,39.79
2019-01-21T15:13:04.112Z,40.66
2019-01-21T15:16:04.928Z,42.77
2019-01-21T15:18:48.336Z,42.67
2019-01-21T15:21:34.105Z,44.50
2019-01-21T15:24:17.384Z,45.05
2019-01-21T15:26:59.602Z,44.34
2019-01-21T15:29:56.577Z,45.52
2019-01-21T15:33:10.952Z,45.51
2019-01-21T15:36:14.992Z,44.66
2019-01-21T15:39:19.795Z,44.23
2019-01-21T15:42:12.442Z,45.65
2019-01-21T15:45:22.401Z,47.14
2019-01-21T15:48:46.197Z,46.49
2019-01-21T15:51:57.996Z,47.15
2019-01-21T15:54:58.234Z,48.74
2019-01-21T15:58:01.081Z,47.75
2019-01-21T16:01:06.446Z,47.78
2019-01-21T16:03:53.088Z,49.13
2019-01-21T16:06:41.385Z,49.22
2019-01-21T16:09:36.013Z,48.79
2019-01-21T16:12:53.210Z,49.57
2019-01-21T16:15:51.593Z,51.83
2019-01-21T16:18:29.055Z,51.83
2019-01-21T16:21:22.974Z,50.71
2019-01-21T16:24:38.957Z,51.03
2019-01-21T16:27:34.543Z,49.17
2019-01-21T16:30:21.486Z,49.40
2019-01-21T16:33:10.743Z,51.48
2019-01-21T16:36:24.144Z,50.97
2019-01-21T16:39:00.351Z,50.21
2019-01-21T16:41:51.884Z,50.72
2019-01-21T16:44:20.687Z,51.35
2019-01-21T16:46:49.301Z,52.53
2019-01-21T16:49:17.863Z,52.06
2019-01-21T16:51:46.708Z,51.46
2019-01-21T16:54:15.541Z,51.25
2019-01-21T16:56:44.120Z,51.72
2019-01-21T16:59:12.710Z,51.56
2019-01-21T17:01:41.279Z,51.76
2019-01-21T17:04:09.934Z,53.43
2019-01-21T17:06:39.532Z,55.61
2019-01-21T17:09:10.756Z,56.70
2019-01-21T17:11:40.358Z,58.24
2019-01-21T17:14:12.987Z,56.85
2019-01-21T17:16:41.598Z,54.95
2019-01-21T17:19:10.184Z,53.45
2019-01-21T17:21:38.796Z,53.43
2019-01-21T17:24:07.335Z,53.16
2019-01-21T17:26:35.985Z,52.50
2019-01-21T17:29:04.727Z,51.67
2019-01-21T17:31:33.372Z,51.66
2019-01-21T17:34:02.152Z,51.34
2019-01-21T17:36:31.163Z,51.84
2019-01-21T17:38:59.791Z,51.41
2019-01-21T17:41:28.390Z,51.87
2019-01-21T17:43:56.984Z,53.62
2019-01-21T17:46:25.551Z,53.79
2019-01-21T17:48:54.238Z,53.49
2019-01-21T17:51:22.836Z,53.69
2019-01-21T17:53:51.613Z,54.25
2019-01-21T17:56:20.254Z,53.66
2019-01-21T17:58:48.842Z,51.96
2019-01-21T18:01:17.657Z,51.08
2019-01-21T18:03:46.221Z,52.32
2019-01-21T18:06:14.822Z,51.98
2019-01-21T18:08:43.701Z,52.89
2019-01-21T18:11:12.321Z,52.46
2019-01-21T18:13:40.875Z,53.34
2019-01-21T18:16:09.551Z,52.75
2019-01-21T18:18:38.164Z,52.30
2019-01-21T18:21:07.557Z,51.86
2019-01-21T18:23:36.152Z,51.20
2019-01-21T18:26:05.378Z,51.13
2019-01-21T18:28:34.162Z,51.41
2019-01-21T18:31:03.629Z,52.60
2019-01-21T18:36:06.369Z,51.89
2019-01-21T18:38:35.471Z,51.96
2019-01-21T18:41:04.357Z,52.52
2019-01-21T18:43:32.996Z,53.77
2019-01-21T18:46:01.724Z,54.21
2019-01-21T18:48:49.814Z,54.30
2019-01-21T18:51:18.548Z,53.72
2019-01-21T18:53:47.276Z,52.66
2019-01-21T18:56:15.967Z,53.84
2019-01-21T19:01:18.726Z,52.46
2019-01-21T19:03:47.322Z,51.49
2019-01-21T19:06:15.922Z,51.07
2019-01-21T19:08:44.528Z,50.72
2019-01-21T19:11:13.432Z,51.19
2019-01-21T19:13:42.107Z,51.90
2019-01-21T19:16:10.686Z,52.08
2019-01-21T19:18:39.251Z,51.27
2019-01-21T19:21:08.009Z,51.27
2019-01-21T19:23:36.674Z,52.08
2019-01-21T19:26:05.477Z,51.43
2019-01-21T19:28:34.055Z,51.67
2019-01-21T19:31:02.805Z,51.42
2019-01-21T19:33:31.393Z,51.08
2019-01-21T19:35:59.980Z,50.73
2019-01-21T19:38:28.538Z,51.79
2019-01-21T19:40:57.148Z,51.29
2019-01-21T19:43:25.821Z,51.04
2019-01-21T19:45:54.638Z,51.17
2019-01-21T19:48:23.576Z,51.17
2019-01-21T19:50:52.205Z,51.24
2019-01-21T19:56:08.463Z,50.63
2019-01-21T20:01:24.738Z,50.52
2019-01-21T20:03:53.622Z,51.31
2019-01-21T20:06:22.357Z,51.66
2019-01-21T20:08:51.270Z,51.90
2019-01-21T20:11:19.894Z,51.90
2019-01-21T20:13:48.531Z,51.96
2019-01-21T20:16:17.107Z,52.07
2019-01-21T20:18:45.690Z,51.25
2019-01-21T20:21:15.449Z,51.92
2019-01-21T20:23:44.072Z,51.91
2019-01-21T20:26:13.635Z,51.91
2019-01-21T20:28:43.030Z,51.84
2019-01-21T20:31:11.862Z,51.37
2019-01-21T20:33:40.576Z,52.82
2019-01-21T20:36:09.481Z,51.57
2019-01-21T20:38:38.079Z,51.81
2019-01-21T20:41:06.968Z,51.50
2019-01-21T20:43:35.553Z,51.64
2019-01-21T20:46:04.321Z,51.42
2019-01-21T20:51:06.847Z,50.85
2019-01-21T20:53:35.620Z,51.18
2019-01-21T20:56:04.155Z,50.78
2019-01-21T20:58:32.789Z,50.75
2019-01-21T21:01:01.415Z,50.77
2019-01-21T21:03:30.037Z,50.39
2019-01-21T21:05:58.714Z,50.39
2019-01-21T21:08:27.302Z,50.36
2019-01-21T21:10:55.882Z,50.31
2019-01-21T21:13:24.478Z,50.86
2019-01-21T21:15:53.241Z,51.35
2019-01-21T21:18:21.832Z,51.08
2019-01-21T21:20:50.449Z,50.75
2019-01-21T21:23:19.016Z,51.46
2019-01-21T21:25:47.595Z,52.25
2019-01-21T21:28:16.185Z,52.56
2019-01-21T21:30:44.784Z,51.75
2019-01-21T21:33:13.426Z,51.42
2019-01-21T21:35:42.048Z,51.70
2019-01-21T21:38:10.618Z,51.43
2019-01-21T21:40:39.197Z,51.40
2019-01-21T21:43:07.801Z,51.25
2019-01-21T21:45:36.655Z,51.79
2019-01-21T21:48:05.377Z,52.66
2019-01-21T21:50:33.998Z,51.66
2019-01-21T21:53:02.673Z,51.88
2019-01-21T21:55:31.347Z,51.75
2019-01-21T21:58:00.186Z,52.01
2019-01-21T22:03:36.313Z,51.69
2019-01-21T22:06:05.304Z,52.40
2019-01-21T22:08:34.142Z,51.98
2019-01-21T22:11:02.750Z,51.90
2019-01-21T22:13:31.331Z,52.06
2019-01-21T22:15:59.943Z,52.35
2019-01-21T22:18:28.804Z,51.60
2019-01-21T22:20:57.616Z,51.48
2019-01-21T22:23:26.207Z,51.19
2019-01-21T22:25:54.815Z,51.70
2019-01-21T22:28:44.478Z,51.43
2019-01-21T22:31:32.363Z,51.54
2019-01-21T22:34:20.201Z,51.28
2019-01-21T22:36:48.793Z,51.50
2019-01-21T22:39:17.397Z,51.39
2019-01-21T22:42:05.225Z,51.26
2019-01-21T22:44:35.570Z,51.35
2019-01-21T22:47:04.451Z,51.78
2019-01-21T22:49:33.034Z,51.71
2019-01-21T22:52:01.630Z,53.20
2019-01-21T22:54:30.202Z,53.04
2019-01-21T22:57:00.553Z,53.84
2019-01-21T22:59:29.380Z,52.30
2019-01-21T23:01:57.980Z,51.70
2019-01-21T23:04:26.828Z,51.61
2019-01-21T23:06:55.432Z,51.42
2019-01-21T23:09:24.331Z,51.28
2019-01-21T23:11:52.920Z,50.98
2019-01-21T23:14:21.499Z,50.97
2019-01-21T23:16:50.163Z,51.19
2019-01-21T23:19:18.761Z,51.35
2019-01-21T23:21:47.373Z,51.18
2019-01-21T23:24:17.757Z,50.94
2019-01-21T23:26:46.593Z,50.82
2019-01-21T23:29:15.169Z,50.51
2019-01-21T23:31:43.786Z,51.78
2019-01-21T23:34:12.354Z,51.02
2019-01-21T23:36:40.924Z,51.13
2019-01-21T23:39:09.552Z,50.95
2019-01-21T23:41:38.113Z,50.59
2019-01-21T23:44:06.714Z,50.86
2019-01-21T23:46:35.515Z,50.87
2019-01-21T23:49:04.095Z,51.35
2019-01-21T23:51:34.471Z,52.50
2019-01-21T23:54:03.060Z,51.50
2019-01-21T23:56:31.643Z,51.35
2019-01-21T23:59:00.307Z,51.75
